MSC Alexa — 3FPP6 — position and weather

sailwx.info

Track history (hours):
 
Tides and Currents Weather Stations Pressure Air Temp Water Temp Dewpoint Dewpoint Depression Visibility Wind Speed Wind Dir Waves Ship Positions

MSC Alexa

Last reported at 2016-May-02 06:21 UTC. Time now 2016-May-05 16:16 UTC.
Position N 12°48' W 017°24'.

Length 243 m; draft 11.9 m.

Type: Ship (hazmat cat A). MMSI: 356904000.

Date/timePositionNaut miles runAvg speedWind from/ knotsBaromVisibWave heightAir tempDewpointWater temp
2016-May-02 06:21N 12°48' W 017°24'1417.1
2016-May-02 05:33N 13°01' W 017°23'1717.2
2016-May-02 04:33N 13°19' W 017°23'1717.1
2016-May-02 03:33N 13°36' W 017°24'1717.4
2016-May-02 02:33N 13°53' W 017°23'1817.6
2016-May-02 01:33N 14°11' W 017°24'1717.3
2016-May-02 00:33N 14°28' W 017°23'1312.7
2016-May-01 23:33N 14°41' W 017°25'1 0.9
2016-May-01 22:33N 14°41' W 017°26'0 0.0
2016-May-01 21:31N 14°41' W 017°26'0 0.0
2016-May-01 20:25N 14°41' W 017°26'0 0.0
2016-May-01 19:24N 14°41' W 017°26'0 0.0
2016-May-01 18:33N 14°41' W 017°26'0 0.0
2016-May-01 17:33N 14°41' W 017°26'1 0.7
2016-May-01 16:33N 14°41' W 017°25'5 4.5
2016-May-01 15:34N 14°39' W 017°29'3316.5
2016-May-01 13:33N 15°12' W 017°35'1917.6
2016-May-01 12:29N 15°31' W 017°35'5517.5
2016-May-01 09:20N 16°26' W 017°36'67617.0
2016-Apr-29 17:33N 27°30' W 015°23'1717.1
2016-Apr-29 16:33N 27°47' W 015°19'1515.4
2016-Apr-29 15:33N 28°03' W 015°21'6 6.1
2016-Apr-29 14:31N 28°08' W 015°25'0 0.0
2016-Apr-29 13:18N 28°08' W 015°25'0 0.0
2016-Apr-29 12:33N 28°08' W 015°25'0 0.0
2016-Apr-29 11:27N 28°08' W 015°25'0 0.0
2016-Apr-29 10:32N 28°08' W 015°25'0 0.0
2016-Apr-29 09:29N 28°08' W 015°25'0 0.0
2016-Apr-29 08:30N 28°08' W 015°25'0 0.0
2016-Apr-29 07:24N 28°08' W 015°25'0 0.0
2016-Apr-29 06:32N 28°08' W 015°25'1 0.5
2016-Apr-29 05:33N 28°07' W 015°24'6 6.2
2016-Apr-29 04:33N 28°08' W 015°18'1414.1
2016-Apr-29 03:33N 28°11' W 015°02'1616.3
2016-Apr-29 02:33N 28°26' W 014°54'1716.9
2016-Apr-29 01:33N 28°42' W 014°49'1717.1
2016-Apr-29 00:33N 28°59' W 014°43'  
2016-Apr-25 15:27N 49°37' W 003°54'1517.1
2016-Apr-25 14:33N 49°45' W 003°33'1717.3
2016-Apr-25 13:34N 49°53' W 003°09'1716.6
2016-Apr-25 12:32N 49°59' W 002°45'5813.0
2016-Apr-25 08:06N 49°49' W 001°17'712.8
2016-Apr-25 07:33N 49°47' W 001°07'1515.1
2016-Apr-25 06:34N 49°41' W 000°45'1716.8
2016-Apr-25 05:34N 49°35' W 000°21'1413.5
2016-Apr-25 04:33N 49°30' W 000°01'7 6.9
2016-Apr-25 03:32N 49°28' E 000°09'0 0.0
2016-Apr-25 02:31N 49°28' E 000°09'0 0.0
2016-Apr-25 01:31N 49°28' E 000°09'0 0.0
2016-Apr-25 00:33N 49°28' E 000°09'0 0.0
2016-Apr-24 23:33N 49°28' E 000°09'0 0.0
2016-Apr-24 22:32N 49°28' E 000°09'0 0.0
2016-Apr-24 21:32N 49°28' E 000°09'0 0.0
2016-Apr-24 20:31N 49°28' E 000°09'0 0.0
2016-Apr-24 19:31N 49°28' E 000°09'0 0.0
2016-Apr-24 18:31N 49°28' E 000°09'0 0.0
2016-Apr-24 17:33N 49°28' E 000°09'0 0.0
2016-Apr-24 16:33N 49°28' E 000°09'0 0.0
2016-Apr-24 15:32N 49°28' E 000°09'0 0.0
2016-Apr-24 14:32N 49°28' E 000°09'3 3.1
2016-Apr-24 13:33N 49°29' E 000°05'1110.6
2016-Apr-24 12:34N 49°32' W 000°11'1515.5
2016-Apr-24 11:34N 49°48' W 000°11'1615.9
2016-Apr-24 10:33N 50°04' W 000°08'1615.5
2016-Apr-24 09:32N 50°19' W 000°08'1414.7
2016-Apr-24 08:33N 50°30' E 000°07'1616.2
2016-Apr-24 07:34N 50°37' E 000°30'2217.8
2016-Apr-24 06:19N 50°48' E 001°00'1418.0
2016-Apr-24 05:33N 50°58' E 001°16'1716.9
2016-Apr-24 04:34N 51°09' E 001°36'1515.0
2016-Apr-24 03:34N 51°21' E 001°50'1414.2
2016-Apr-24 02:34N 51°35' E 001°48'1515.2
2016-Apr-24 01:34N 51°50' E 001°42'1111.4
2016-Apr-24 00:33N 51°56' E 001°27'6 5.6
2016-Apr-23 23:33N 51°57' E 001°18'0 0.0
2016-Apr-23 22:33N 51°58' E 001°18'0 0.0
2016-Apr-23 21:30N 51°58' E 001°18'0 0.0
2016-Apr-23 20:32N 51°57' E 001°18'0 0.0
2016-Apr-23 19:32N 51°58' E 001°18'0 0.0
2016-Apr-23 18:31N 51°58' E 001°18'0 0.0
2016-Apr-23 17:31N 51°57' E 001°18'0 0.0
2016-Apr-23 16:30N 51°58' E 001°18'0 0.0
2016-Apr-23 15:33N 51°58' E 001°18'0 0.0
2016-Apr-23 14:33N 51°58' E 001°18'0 0.0
2016-Apr-23 13:32N 51°58' E 001°18'0 0.0
2016-Apr-23 12:32N 51°58' E 001°18'0 0.0
2016-Apr-23 11:31N 51°57' E 001°18'0 0.0
2016-Apr-23 10:31N 51°58' E 001°18'0 0.0
2016-Apr-23 09:33N 51°57' E 001°18'0 0.0
2016-Apr-23 08:33N 51°57' E 001°18'0 0.0
2016-Apr-23 07:33N 51°58' E 001°18'0 0.0
2016-Apr-23 06:32N 51°57' E 001°18'0 0.0
2016-Apr-23 05:32N 51°58' E 001°18'0 0.0
2016-Apr-23 04:31N 51°58' E 001°18'0 0.0
2016-Apr-23 03:31N 51°57' E 001°18'0 0.0
2016-Apr-23 02:33N 51°58' E 001°18'0 0.0
2016-Apr-23 01:33N 51°58' E 001°18'0 0.0
2016-Apr-23 00:33N 51°57' E 001°18'0 0.0
2016-Apr-22 23:32N 51°57' E 001°18'0 0.0
2016-Apr-22 22:32N 51°58' E 001°18'0 0.0
2016-Apr-22 21:31N 51°58' E 001°18'0 0.0
2016-Apr-22 20:31N 51°58' E 001°18'1 0.8
2016-Apr-22 19:33N 51°57' E 001°19'1010.1
2016-Apr-22 18:33N 51°53' E 001°34'7 6.6
2016-Apr-22 17:33N 51°53' E 001°44'2 2.1
2016-Apr-22 16:33N 51°51' E 001°47'5 5.4
2016-Apr-22 15:33N 51°46' E 001°49'1110.7
2016-Apr-22 14:33N 51°36' E 001°52'1515.3
2016-Apr-22 13:34N 51°23' E 002°06'1514.5
2016-Apr-22 12:33N 51°23' E 002°30'1211.8
2016-Apr-22 11:33N 51°22' E 002°48'1514.8
2016-Apr-22 10:34N 51°24' E 003°12'1514.5
2016-Apr-22 09:33N 51°26' E 003°35'1110.6
2016-Apr-22 08:32N 51°21' E 003°50'8 8.5
2016-Apr-22 07:34N 51°23' E 004°03'9 8.9
2016-Apr-22 06:33N 51°21' E 004°17'  
Track history (hours):
 
Tides and Currents Weather Stations Pressure Air Temp Water Temp Dewpoint Dewpoint Depression Visibility Wind Speed Wind Dir Waves Ship Positions

MSC Alexa

Last reported at 2016-May-02 06:21 UTC. Time now 2016-May-05 16:16 UTC.
Position N 12°48' W 017°24'.

Length 243 m; draft 11.9 m.

Type: Ship (hazmat cat A). MMSI: 356904000.

Date/timePositionNaut miles runAvg speedWind from/ knotsBaromVisibWave heightAir tempDewpointWater temp
2016-May-02 06:21N 12°48' W 017°24'1417.1
2016-May-02 05:33N 13°01' W 017°23'1717.2
2016-May-02 04:33N 13°19' W 017°23'1717.1
2016-May-02 03:33N 13°36' W 017°24'1717.4
2016-May-02 02:33N 13°53' W 017°23'1817.6
2016-May-02 01:33N 14°11' W 017°24'1717.3
2016-May-02 00:33N 14°28' W 017°23'1312.7
2016-May-01 23:33N 14°41' W 017°25'1 0.9
2016-May-01 22:33N 14°41' W 017°26'0 0.0
2016-May-01 21:31N 14°41' W 017°26'0 0.0
2016-May-01 20:25N 14°41' W 017°26'0 0.0
2016-May-01 19:24N 14°41' W 017°26'0 0.0
2016-May-01 18:33N 14°41' W 017°26'0 0.0
2016-May-01 17:33N 14°41' W 017°26'1 0.7
2016-May-01 16:33N 14°41' W 017°25'5 4.5
2016-May-01 15:34N 14°39' W 017°29'3316.5
2016-May-01 13:33N 15°12' W 017°35'1917.6
2016-May-01 12:29N 15°31' W 017°35'5517.5
2016-May-01 09:20N 16°26' W 017°36'67617.0
2016-Apr-29 17:33N 27°30' W 015°23'1717.1
2016-Apr-29 16:33N 27°47' W 015°19'1515.4
2016-Apr-29 15:33N 28°03' W 015°21'6 6.1
2016-Apr-29 14:31N 28°08' W 015°25'0 0.0
2016-Apr-29 13:18N 28°08' W 015°25'0 0.0
2016-Apr-29 12:33N 28°08' W 015°25'0 0.0
2016-Apr-29 11:27N 28°08' W 015°25'0 0.0
2016-Apr-29 10:32N 28°08' W 015°25'0 0.0
2016-Apr-29 09:29N 28°08' W 015°25'0 0.0
2016-Apr-29 08:30N 28°08' W 015°25'0 0.0
2016-Apr-29 07:24N 28°08' W 015°25'0 0.0
2016-Apr-29 06:32N 28°08' W 015°25'1 0.5
2016-Apr-29 05:33N 28°07' W 015°24'6 6.2
2016-Apr-29 04:33N 28°08' W 015°18'1414.1
2016-Apr-29 03:33N 28°11' W 015°02'1616.3
2016-Apr-29 02:33N 28°26' W 014°54'1716.9
2016-Apr-29 01:33N 28°42' W 014°49'1717.1
2016-Apr-29 00:33N 28°59' W 014°43'  
2016-Apr-25 15:27N 49°37' W 003°54'1517.1
2016-Apr-25 14:33N 49°45' W 003°33'1717.3
2016-Apr-25 13:34N 49°53' W 003°09'1716.6
2016-Apr-25 12:32N 49°59' W 002°45'5813.0
2016-Apr-25 08:06N 49°49' W 001°17'712.8
2016-Apr-25 07:33N 49°47' W 001°07'1515.1
2016-Apr-25 06:34N 49°41' W 000°45'1716.8
2016-Apr-25 05:34N 49°35' W 000°21'1413.5
2016-Apr-25 04:33N 49°30' W 000°01'7 6.9
2016-Apr-25 03:32N 49°28' E 000°09'0 0.0
2016-Apr-25 02:31N 49°28' E 000°09'0 0.0
2016-Apr-25 01:31N 49°28' E 000°09'0 0.0
2016-Apr-25 00:33N 49°28' E 000°09'0 0.0
2016-Apr-24 23:33N 49°28' E 000°09'0 0.0
2016-Apr-24 22:32N 49°28' E 000°09'0 0.0
2016-Apr-24 21:32N 49°28' E 000°09'0 0.0
2016-Apr-24 20:31N 49°28' E 000°09'0 0.0
2016-Apr-24 19:31N 49°28' E 000°09'0 0.0
2016-Apr-24 18:31N 49°28' E 000°09'0 0.0
2016-Apr-24 17:33N 49°28' E 000°09'0 0.0
2016-Apr-24 16:33N 49°28' E 000°09'0 0.0
2016-Apr-24 15:32N 49°28' E 000°09'0 0.0
2016-Apr-24 14:32N 49°28' E 000°09'3 3.1
2016-Apr-24 13:33N 49°29' E 000°05'1110.6
2016-Apr-24 12:34N 49°32' W 000°11'1515.5
2016-Apr-24 11:34N 49°48' W 000°11'1615.9
2016-Apr-24 10:33N 50°04' W 000°08'1615.5
2016-Apr-24 09:32N 50°19' W 000°08'1414.7
2016-Apr-24 08:33N 50°30' E 000°07'1616.2
2016-Apr-24 07:34N 50°37' E 000°30'2217.8
2016-Apr-24 06:19N 50°48' E 001°00'1418.0
2016-Apr-24 05:33N 50°58' E 001°16'1716.9
2016-Apr-24 04:34N 51°09' E 001°36'1515.0
2016-Apr-24 03:34N 51°21' E 001°50'1414.2
2016-Apr-24 02:34N 51°35' E 001°48'1515.2
2016-Apr-24 01:34N 51°50' E 001°42'1111.4
2016-Apr-24 00:33N 51°56' E 001°27'6 5.6
2016-Apr-23 23:33N 51°57' E 001°18'0 0.0
2016-Apr-23 22:33N 51°58' E 001°18'0 0.0
2016-Apr-23 21:30N 51°58' E 001°18'0 0.0
2016-Apr-23 20:32N 51°57' E 001°18'0 0.0
2016-Apr-23 19:32N 51°58' E 001°18'0 0.0
2016-Apr-23 18:31N 51°58' E 001°18'0 0.0
2016-Apr-23 17:31N 51°57' E 001°18'0 0.0
2016-Apr-23 16:30N 51°58' E 001°18'0 0.0
2016-Apr-23 15:33N 51°58' E 001°18'0 0.0
2016-Apr-23 14:33N 51°58' E 001°18'0 0.0
2016-Apr-23 13:32N 51°58' E 001°18'0 0.0
2016-Apr-23 12:32N 51°58' E 001°18'0 0.0
2016-Apr-23 11:31N 51°57' E 001°18'0 0.0
2016-Apr-23 10:31N 51°58' E 001°18'0 0.0
2016-Apr-23 09:33N 51°57' E 001°18'0 0.0
2016-Apr-23 08:33N 51°57' E 001°18'0 0.0
2016-Apr-23 07:33N 51°58' E 001°18'0 0.0
2016-Apr-23 06:32N 51°57' E 001°18'0 0.0
2016-Apr-23 05:32N 51°58' E 001°18'0 0.0
2016-Apr-23 04:31N 51°58' E 001°18'0 0.0
2016-Apr-23 03:31N 51°57' E 001°18'0 0.0
2016-Apr-23 02:33N 51°58' E 001°18'0 0.0
2016-Apr-23 01:33N 51°58' E 001°18'0 0.0
2016-Apr-23 00:33N 51°57' E 001°18'0 0.0
2016-Apr-22 23:32N 51°57' E 001°18'0 0.0
2016-Apr-22 22:32N 51°58' E 001°18'0 0.0
2016-Apr-22 21:31N 51°58' E 001°18'0 0.0
2016-Apr-22 20:31N 51°58' E 001°18'1 0.8
2016-Apr-22 19:33N 51°57' E 001°19'1010.1
2016-Apr-22 18:33N 51°53' E 001°34'7 6.6
2016-Apr-22 17:33N 51°53' E 001°44'2 2.1
2016-Apr-22 16:33N 51°51' E 001°47'5 5.4
2016-Apr-22 15:33N 51°46' E 001°49'1110.7
2016-Apr-22 14:33N 51°36' E 001°52'1515.3
2016-Apr-22 13:34N 51°23' E 002°06'1514.5
2016-Apr-22 12:33N 51°23' E 002°30'1211.8
2016-Apr-22 11:33N 51°22' E 002°48'1514.8
2016-Apr-22 10:34N 51°24' E 003°12'1514.5
2016-Apr-22 09:33N 51°26' E 003°35'1110.6
2016-Apr-22 08:32N 51°21' E 003°50'8 8.5
2016-Apr-22 07:34N 51°23' E 004°03'9 8.9
2016-Apr-22 06:33N 51°21' E 004°17'  

Dump ship's entire track history